Concord, New Hampshire
Current Conditions -  °F | °C
As of 6:53 PM on Friday 28 Nov 2014 (Local Time) from KMHT Reporting Station
Few Clouds Few Clouds  
Wind Chill: 26°   Ceiling: Unl
Heat Index: 26°   Visibility: 10mi
Dew Point: 15°   Wind: 3mph
Humidity: 63%   Direction: 270°W
Pressure: 30.14"   Gusts: NA
Location:  43.21°N, 71.54°W
Report Text: KMHT 282353Z 27003KT 10SM FEW060 M03/M09 A3014 RMK AO2 SLP225 4/009 T10331094 10011 21039 51023
Loading
Personal Weather Stations






























Interactive Weather Map New forecast layout! Learn more

10-Day Weather Forecast

Advertisements
Track Severe Weather on mobile